createdAt,value
2018-07-02T00:02:12.620Z,39.60
2018-07-02T00:04:41.303Z,39.40
2018-07-02T00:07:19.154Z,39.90
2018-07-02T00:09:48.632Z,39.80
2018-07-02T00:12:18.295Z,39.80
2018-07-02T00:14:48.500Z,39.90
2018-07-02T00:17:17.287Z,39.90
2018-07-02T00:19:46.578Z,39.90
2018-07-02T00:22:15.776Z,40.00
2018-07-02T00:24:44.433Z,40.20
2018-07-02T00:27:13.046Z,40.30
2018-07-02T00:29:42.021Z,40.30
2018-07-02T00:32:10.944Z,40.30
2018-07-02T00:34:39.897Z,40.20
2018-07-02T00:37:08.506Z,40.40
2018-07-02T00:39:37.094Z,40.20
2018-07-02T00:42:05.739Z,40.20
2018-07-02T00:44:34.631Z,40.40
2018-07-02T00:47:03.256Z,39.80
2018-07-02T00:49:31.758Z,40.20
2018-07-02T00:52:01.183Z,40.50
2018-07-02T00:54:30.199Z,40.50
2018-07-02T00:56:59.231Z,40.40
2018-07-02T00:59:27.832Z,40.60
2018-07-02T01:01:57.371Z,40.80
2018-07-02T01:04:26.027Z,41.10
2018-07-02T01:06:54.977Z,40.70
2018-07-02T01:09:23.561Z,40.90
2018-07-02T01:11:52.200Z,40.90
2018-07-02T01:14:20.784Z,41.10
2018-07-02T01:16:49.391Z,41.10
2018-07-02T01:19:17.974Z,41.00
2018-07-02T01:21:46.537Z,41.20
2018-07-02T01:24:15.169Z,41.30
2018-07-02T01:26:43.808Z,41.50
2018-07-02T01:31:40.640Z,41.60
2018-07-02T01:34:09.309Z,41.60
2018-07-02T01:36:38.204Z,41.40
2018-07-02T01:39:09.247Z,41.30
2018-07-02T01:41:37.931Z,41.40
2018-07-02T01:44:06.719Z,41.50
2018-07-02T01:46:35.913Z,41.30
2018-07-02T01:49:04.668Z,41.40
2018-07-02T01:51:33.412Z,41.80
2018-07-02T01:54:02.066Z,41.80
2018-07-02T01:56:30.698Z,42.00
2018-07-02T01:58:59.653Z,42.00
2018-07-02T02:01:28.305Z,42.00
2018-07-02T02:03:56.920Z,42.10
2018-07-02T02:06:25.655Z,42.10
2018-07-02T02:08:54.291Z,42.20
2018-07-02T02:11:22.930Z,42.10
2018-07-02T02:13:51.591Z,41.90
2018-07-02T02:16:20.274Z,41.90
2018-07-02T02:18:48.859Z,41.90
2018-07-02T02:21:17.531Z,42.20
2018-07-02T02:23:46.492Z,42.10
2018-07-02T02:26:15.159Z,42.20
2018-07-02T02:28:43.791Z,42.00
2018-07-02T02:31:12.425Z,41.80
2018-07-02T02:33:41.079Z,41.70
2018-07-02T02:36:09.720Z,41.80
2018-07-02T02:38:38.379Z,41.70
2018-07-02T02:41:07.251Z,41.90
2018-07-02T02:43:35.922Z,42.10
2018-07-02T02:46:04.676Z,42.00
2018-07-02T02:48:33.292Z,42.00
2018-07-02T02:51:01.879Z,42.00
2018-07-02T02:53:30.500Z,42.20
2018-07-02T02:55:59.147Z,42.20
2018-07-02T02:58:28.043Z,42.20
2018-07-02T03:00:56.798Z,42.30
2018-07-02T03:03:25.419Z,42.10
2018-07-02T03:05:54.047Z,41.80
2018-07-02T03:08:22.651Z,41.70
2018-07-02T03:10:51.531Z,42.10
2018-07-02T03:13:20.120Z,42.00
2018-07-02T03:15:48.723Z,42.10
2018-07-02T03:18:17.375Z,42.10
2018-07-02T03:20:46.222Z,42.00
2018-07-02T03:23:14.842Z,42.00
2018-07-02T03:25:43.389Z,42.30
2018-07-02T03:28:12.039Z,42.00
2018-07-02T03:30:40.763Z,42.00
2018-07-02T03:33:09.752Z,42.40
2018-07-02T03:35:38.349Z,42.20
2018-07-02T03:38:07.331Z,42.20
2018-07-02T03:40:36.003Z,42.10
2018-07-02T03:43:04.603Z,42.30
2018-07-02T03:45:33.142Z,42.50
2018-07-02T03:48:02.446Z,42.20
2018-07-02T03:50:31.142Z,42.00
2018-07-02T03:53:00.010Z,41.90
2018-07-02T03:55:28.587Z,41.90
2018-07-02T03:57:57.207Z,42.10
2018-07-02T04:00:25.792Z,41.80
2018-07-02T04:02:54.771Z,41.90
2018-07-02T04:05:23.642Z,41.90
2018-07-02T04:07:52.260Z,41.90
2018-07-02T04:10:20.957Z,41.70
2018-07-02T04:12:49.596Z,41.90
2018-07-02T04:15:18.254Z,42.20
2018-07-02T04:17:46.815Z,42.80
2018-07-02T04:20:16.179Z,41.90
2018-07-02T04:22:44.870Z,41.70
2018-07-02T04:25:13.516Z,41.80
2018-07-02T04:27:42.536Z,41.40
2018-07-02T04:30:11.236Z,41.70
2018-07-02T04:32:39.922Z,41.90
2018-07-02T04:35:08.559Z,41.80
2018-07-02T04:37:37.532Z,42.30
2018-07-02T04:40:06.166Z,41.60
2018-07-02T04:42:34.855Z,41.80
2018-07-02T04:45:03.603Z,42.10
2018-07-02T04:47:32.218Z,42.20
2018-07-02T04:50:00.867Z,42.10
2018-07-02T04:52:29.887Z,42.10
2018-07-02T04:54:58.459Z,41.80
2018-07-02T04:57:27.187Z,42.10
2018-07-02T04:59:56.201Z,42.00
2018-07-02T05:02:25.147Z,42.00
2018-07-02T05:04:54.029Z,41.70
2018-07-02T05:07:22.897Z,41.50
2018-07-02T05:09:51.542Z,41.50
2018-07-02T05:12:20.153Z,41.60
2018-07-02T05:14:48.709Z,41.70
2018-07-02T05:17:17.288Z,41.70
2018-07-02T05:19:45.905Z,41.60
2018-07-02T05:22:14.618Z,41.60
2018-07-02T05:24:43.335Z,41.40
2018-07-02T05:27:11.926Z,41.50
2018-07-02T05:29:40.769Z,41.50
2018-07-02T05:32:09.720Z,42.20
2018-07-02T05:34:38.352Z,41.50
2018-07-02T05:37:07.255Z,41.30
2018-07-02T05:39:35.944Z,41.10
2018-07-02T05:42:04.965Z,41.00
2018-07-02T05:47:01.827Z,40.70
2018-07-02T05:49:30.395Z,40.80
2018-07-02T05:51:58.935Z,40.70
2018-07-02T05:54:27.464Z,40.80
2018-07-02T05:59:24.382Z,40.40
2018-07-02T06:01:53.113Z,40.30
2018-07-02T06:04:21.665Z,40.10
2018-07-02T06:06:50.308Z,40.00
2018-07-02T06:09:19.115Z,39.90
2018-07-02T06:11:47.700Z,39.90
2018-07-02T06:14:16.622Z,39.80
2018-07-02T06:16:45.259Z,39.70
2018-07-02T06:19:13.810Z,39.90
2018-07-02T06:21:42.402Z,39.50
2018-07-02T06:26:39.626Z,39.20
2018-07-02T06:29:08.304Z,39.00
2018-07-02T06:31:36.942Z,38.90
2018-07-02T06:34:05.623Z,38.50
2018-07-02T06:36:34.267Z,38.50
2018-07-02T06:39:04.172Z,38.40
2018-07-02T06:41:32.967Z,38.50
2018-07-02T06:44:01.729Z,38.30
2018-07-02T06:46:30.776Z,38.20
2018-07-02T06:48:59.408Z,38.20
2018-07-02T06:51:28.023Z,38.20
2018-07-02T06:53:56.866Z,38.00
2018-07-02T06:56:26.400Z,37.40
2018-07-02T06:58:55.610Z,37.40
2018-07-02T07:01:24.330Z,37.10
2018-07-02T07:03:52.991Z,36.50
2018-07-02T07:06:22.626Z,36.30
2018-07-02T07:08:51.220Z,35.60
2018-07-02T07:11:20.305Z,35.40
2018-07-02T07:13:49.343Z,35.30
2018-07-02T07:16:18.017Z,35.00
2018-07-02T07:18:46.840Z,35.20
2018-07-02T07:21:16.084Z,35.10
2018-07-02T07:23:45.196Z,34.60
2018-07-02T07:26:13.821Z,33.50
2018-07-02T07:28:42.523Z,33.90
2018-07-02T07:31:11.165Z,33.40
2018-07-02T07:33:39.789Z,33.50
2018-07-02T07:36:08.572Z,33.60
2018-07-02T07:38:37.237Z,33.10
2018-07-02T07:41:05.903Z,32.90
2018-07-02T07:43:34.560Z,33.20
2018-07-02T07:46:03.335Z,33.10
2018-07-02T07:48:32.004Z,33.00
2018-07-02T07:51:00.960Z,32.70
2018-07-02T07:53:29.695Z,33.30
2018-07-02T07:55:58.383Z,33.10
2018-07-02T07:58:27.619Z,32.90
2018-07-02T08:03:24.859Z,32.80
2018-07-02T08:05:54.045Z,32.30
2018-07-02T08:08:22.723Z,31.70
2018-07-02T08:10:51.329Z,31.90
2018-07-02T08:13:19.977Z,32.50
2018-07-02T08:15:48.601Z,32.20
2018-07-02T08:18:17.529Z,32.40
2018-07-02T08:20:46.257Z,32.20
2018-07-02T08:23:14.985Z,32.30
2018-07-02T08:25:43.559Z,32.10
2018-07-02T08:28:12.222Z,31.90
2018-07-02T08:30:40.937Z,31.90
2018-07-02T08:33:09.811Z,32.00
2018-07-02T08:35:38.536Z,32.40
2018-07-02T08:40:36.047Z,32.30
2018-07-02T08:43:05.205Z,32.10
2018-07-02T08:45:34.186Z,32.00
2018-07-02T08:48:02.731Z,32.20
2018-07-02T08:50:31.375Z,31.90
2018-07-02T08:52:59.959Z,31.90
2018-07-02T08:55:28.940Z,31.50
2018-07-02T09:00:25.818Z,32.30
2018-07-02T09:02:54.523Z,31.00
2018-07-02T09:05:23.201Z,31.20
2018-07-02T09:07:51.878Z,31.20
2018-07-02T09:10:20.714Z,31.30
2018-07-02T09:12:49.656Z,31.30
2018-07-02T09:15:18.421Z,31.30
2018-07-02T09:20:15.845Z,31.50
2018-07-02T09:22:44.665Z,31.90
2018-07-02T09:25:14.576Z,32.10
2018-07-02T09:27:43.577Z,31.80
2018-07-02T09:30:12.486Z,31.70
2018-07-02T09:32:41.801Z,31.30
2018-07-02T09:35:10.661Z,31.20
2018-07-02T09:37:39.470Z,31.40
2018-07-02T09:40:08.427Z,31.20
2018-07-02T09:42:37.662Z,31.50
2018-07-02T09:45:06.860Z,32.00
2018-07-02T09:47:35.805Z,31.80
2018-07-02T09:50:04.512Z,32.00
2018-07-02T09:52:34.437Z,31.60
2018-07-02T09:55:03.410Z,32.30
2018-07-02T09:57:32.406Z,31.50
2018-07-02T10:00:01.138Z,31.90
2018-07-02T10:02:30.739Z,31.70
2018-07-02T10:04:59.526Z,31.70
2018-07-02T10:07:28.371Z,32.10
2018-07-02T10:09:57.002Z,31.90
2018-07-02T10:12:26.003Z,31.60
2018-07-02T10:14:54.699Z,31.80
2018-07-02T10:17:23.385Z,31.80
2018-07-02T10:19:52.143Z,31.80
2018-07-02T10:22:20.947Z,32.20
2018-07-02T10:24:49.529Z,31.60
2018-07-02T10:27:18.236Z,31.80
2018-07-02T10:29:47.963Z,31.70
2018-07-02T10:32:16.841Z,31.90
2018-07-02T10:34:45.425Z,31.40
2018-07-02T10:37:14.368Z,31.40
2018-07-02T10:39:43.181Z,31.70
2018-07-02T10:42:11.767Z,31.10
2018-07-02T10:44:40.801Z,30.30
2018-07-02T10:47:09.439Z,31.00
2018-07-02T10:49:38.287Z,31.00
2018-07-02T10:52:07.154Z,31.20
2018-07-02T10:54:35.966Z,31.50
2018-07-02T10:57:04.810Z,31.30
2018-07-02T10:59:33.393Z,30.50
2018-07-02T11:02:01.956Z,31.10
2018-07-02T11:04:30.543Z,31.30
2018-07-02T11:06:59.212Z,31.20
2018-07-02T11:09:28.268Z,31.70
2018-07-02T11:11:56.830Z,31.00
2018-07-02T11:16:54.259Z,30.80
2018-07-02T11:19:23.170Z,30.40
2018-07-02T11:21:51.985Z,31.90
2018-07-02T11:24:20.711Z,32.00
2018-07-02T11:26:49.374Z,31.00
2018-07-02T11:29:18.188Z,30.80
2018-07-02T11:31:46.804Z,31.20
2018-07-02T11:34:15.416Z,30.90
2018-07-02T11:36:44.857Z,31.20
2018-07-02T11:39:13.681Z,31.00
2018-07-02T11:41:42.883Z,30.70
2018-07-02T11:46:40.111Z,30.40
2018-07-02T11:49:09.107Z,30.60
2018-07-02T11:51:37.662Z,30.80
2018-07-02T11:54:06.527Z,30.30
2018-07-02T11:56:35.512Z,30.40
2018-07-02T11:59:04.255Z,30.70
2018-07-02T12:01:33.134Z,30.30
2018-07-02T12:04:01.820Z,29.90
2018-07-02T12:06:30.746Z,30.00
2018-07-02T12:08:59.493Z,30.40
2018-07-02T12:11:28.160Z,30.50
2018-07-02T12:13:56.932Z,30.30
2018-07-02T12:16:25.693Z,29.90
2018-07-02T12:18:54.685Z,30.10
2018-07-02T12:21:23.569Z,30.50
2018-07-02T12:23:52.311Z,31.00
2018-07-02T12:26:21.054Z,30.90
2018-07-02T12:28:49.831Z,30.80
2018-07-02T12:31:18.525Z,30.70
2018-07-02T12:33:47.276Z,31.10
2018-07-02T12:36:16.146Z,30.90
2018-07-02T12:41:13.471Z,30.50
2018-07-02T12:43:42.549Z,30.80
2018-07-02T12:46:11.357Z,31.20
2018-07-02T12:48:40.007Z,30.20
2018-07-02T12:51:08.721Z,30.90
2018-07-02T12:53:37.397Z,30.00
2018-07-02T12:56:06.406Z,31.00
2018-07-02T12:58:35.189Z,31.20
2018-07-02T13:01:04.192Z,30.20
2018-07-02T13:03:33.476Z,30.00
2018-07-02T13:06:02.272Z,30.40
2018-07-02T13:08:31.086Z,30.80
2018-07-02T13:11:00.188Z,31.00
2018-07-02T13:13:30.024Z,31.20
2018-07-02T13:15:59.390Z,30.90
2018-07-02T13:18:28.064Z,31.10
2018-07-02T13:20:56.758Z,30.90
2018-07-02T13:23:25.340Z,31.00
2018-07-02T13:25:54.024Z,30.00
2018-07-02T13:28:22.712Z,29.90
2018-07-02T13:30:51.621Z,30.00
2018-07-02T13:33:20.288Z,30.40
2018-07-02T13:35:49.488Z,30.10
2018-07-02T13:38:18.269Z,30.60
2018-07-02T13:40:47.080Z,29.80
2018-07-02T13:43:15.837Z,30.00
2018-07-02T13:45:44.858Z,29.70
2018-07-02T13:48:13.518Z,29.90
2018-07-02T13:50:42.179Z,29.70
2018-07-02T13:53:10.853Z,29.80
2018-07-02T13:55:39.989Z,29.40
2018-07-02T13:58:08.801Z,29.70
2018-07-02T14:00:38.332Z,29.40
2018-07-02T14:03:06.976Z,29.70
2018-07-02T14:05:35.562Z,29.70
2018-07-02T14:08:04.344Z,30.60
2018-07-02T14:10:33.331Z,30.20
2018-07-02T14:13:02.698Z,29.90
2018-07-02T14:15:31.485Z,29.50
2018-07-02T14:18:00.104Z,29.80
2018-07-02T14:20:28.933Z,29.30
2018-07-02T14:22:58.451Z,29.10
2018-07-02T14:25:27.139Z,29.50
2018-07-02T14:27:56.928Z,29.80
2018-07-02T14:30:25.706Z,29.90
2018-07-02T14:32:54.636Z,30.00
2018-07-02T14:35:23.372Z,30.10
2018-07-02T14:37:52.077Z,29.60
2018-07-02T14:40:20.965Z,30.20
2018-07-02T14:42:50.188Z,30.00
2018-07-02T14:47:47.933Z,29.70
2018-07-02T14:50:16.724Z,29.30
2018-07-02T14:52:45.555Z,28.90
2018-07-02T14:55:14.415Z,28.90
2018-07-02T14:57:43.177Z,29.40
2018-07-02T15:00:12.016Z,28.90
2018-07-02T15:02:40.787Z,29.10
2018-07-02T15:05:09.653Z,29.20
2018-07-02T15:07:38.367Z,30.00
2018-07-02T15:10:07.750Z,29.90
2018-07-02T15:12:36.635Z,29.40
2018-07-02T15:15:05.740Z,29.50
2018-07-02T15:17:34.928Z,29.50
2018-07-02T15:20:03.981Z,29.30
2018-07-02T15:22:32.615Z,29.50
2018-07-02T15:25:01.615Z,30.00
2018-07-02T15:27:30.604Z,29.70
2018-07-02T15:29:59.354Z,28.80
2018-07-02T15:32:28.528Z,28.80
2018-07-02T15:34:57.294Z,28.90
2018-07-02T15:37:26.081Z,29.40
2018-07-02T15:39:54.746Z,29.50
2018-07-02T15:42:23.588Z,29.60
2018-07-02T15:44:52.689Z,29.60
2018-07-02T15:47:21.555Z,29.80
2018-07-02T15:49:50.225Z,29.50
2018-07-02T15:52:18.852Z,29.20
2018-07-02T15:54:47.551Z,29.60
2018-07-02T15:57:16.419Z,29.10
2018-07-02T15:59:45.703Z,29.50
2018-07-02T16:02:14.382Z,29.60
2018-07-02T16:04:43.125Z,29.70
2018-07-02T16:07:11.920Z,29.70
2018-07-02T16:09:40.511Z,29.60
2018-07-02T16:12:09.135Z,29.10
2018-07-02T16:14:37.783Z,29.20
2018-07-02T16:17:06.480Z,30.00
2018-07-02T16:19:36.317Z,29.50
2018-07-02T16:22:05.207Z,29.30
2018-07-02T16:24:34.031Z,29.50
2018-07-02T16:27:02.813Z,29.40
2018-07-02T16:29:31.737Z,29.60
2018-07-02T16:32:00.648Z,29.90
2018-07-02T16:34:30.705Z,29.60
2018-07-02T16:36:59.319Z,30.00
2018-07-02T16:39:28.509Z,30.00
2018-07-02T16:41:57.873Z,30.20
2018-07-02T16:44:26.507Z,30.00
2018-07-02T16:46:55.091Z,30.00
2018-07-02T16:49:23.709Z,30.00
2018-07-02T16:51:52.329Z,29.70
2018-07-02T16:54:21.379Z,29.70
2018-07-02T16:56:49.990Z,30.30
2018-07-02T16:59:18.602Z,29.60
2018-07-02T17:01:47.726Z,29.80
2018-07-02T17:04:16.694Z,29.80
2018-07-02T17:06:45.404Z,30.00
2018-07-02T17:09:14.183Z,29.70
2018-07-02T17:11:42.723Z,30.20
2018-07-02T17:14:11.340Z,30.00
2018-07-02T17:16:40.633Z,30.30
2018-07-02T17:19:09.802Z,30.80
2018-07-02T17:21:38.972Z,30.80
2018-07-02T17:24:07.864Z,29.50
2018-07-02T17:26:36.896Z,30.00
2018-07-02T17:29:06.551Z,30.30
2018-07-02T17:31:35.242Z,30.50
2018-07-02T17:34:04.264Z,30.10
2018-07-02T17:36:32.920Z,30.00
2018-07-02T17:39:01.484Z,30.70
2018-07-02T17:41:30.083Z,29.90
2018-07-02T17:46:27.518Z,29.70
2018-07-02T17:48:56.179Z,29.40
2018-07-02T17:51:24.782Z,29.60
2018-07-02T17:53:53.328Z,29.70
2018-07-02T17:56:22.141Z,29.90
2018-07-02T17:58:50.726Z,29.80
2018-07-02T18:01:19.642Z,30.30
2018-07-02T18:03:48.371Z,30.90
2018-07-02T18:06:17.329Z,30.00
2018-07-02T18:08:46.696Z,30.50
2018-07-02T18:11:15.476Z,30.00
2018-07-02T18:13:44.069Z,29.90
2018-07-02T18:16:12.840Z,30.30
2018-07-02T18:18:42.426Z,30.10
2018-07-02T18:21:11.196Z,30.20
2018-07-02T18:23:39.956Z,30.50
2018-07-02T18:26:08.650Z,30.60
2018-07-02T18:28:37.561Z,31.00
2018-07-02T18:31:06.475Z,31.60
2018-07-02T18:33:37.219Z,31.40
2018-07-02T18:36:06.169Z,31.60
2018-07-02T18:38:35.147Z,32.20
2018-07-02T18:41:04.389Z,32.20
2018-07-02T18:43:33.043Z,32.30
2018-07-02T18:46:02.156Z,32.80
2018-07-02T18:48:30.781Z,33.00
2018-07-02T18:50:59.596Z,32.50
2018-07-02T18:53:28.304Z,32.70
2018-07-02T18:55:57.155Z,33.00
2018-07-02T18:58:26.426Z,33.50
2018-07-02T19:00:55.420Z,33.10
2018-07-02T19:03:24.302Z,33.30
2018-07-02T19:05:52.910Z,33.80
2018-07-02T19:08:21.920Z,33.70
2018-07-02T19:10:51.048Z,33.90
2018-07-02T19:13:19.987Z,34.40
2018-07-02T19:15:49.046Z,32.80
2018-07-02T19:18:17.735Z,32.70
2018-07-02T19:20:47.215Z,32.70
2018-07-02T19:23:15.966Z,32.70
2018-07-02T19:25:45.228Z,32.70
2018-07-02T19:28:14.245Z,33.10
2018-07-02T19:30:43.071Z,33.10
2018-07-02T19:33:11.770Z,33.20
2018-07-02T19:35:40.323Z,33.30
2018-07-02T19:38:09.278Z,33.50
2018-07-02T19:40:38.004Z,33.90
2018-07-02T19:43:07.685Z,33.90
2018-07-02T19:45:36.347Z,33.90
2018-07-02T19:48:06.361Z,34.60
2018-07-02T19:50:35.270Z,34.90
2018-07-02T19:53:04.374Z,35.10
2018-07-02T19:55:33.265Z,35.50
2018-07-02T19:58:03.058Z,35.90
2018-07-02T20:00:32.102Z,36.10
2018-07-02T20:03:01.169Z,36.30
2018-07-02T20:05:30.154Z,36.60
2018-07-02T20:07:58.766Z,37.10
2018-07-02T20:10:27.552Z,37.60
2018-07-02T20:12:56.220Z,37.70
2018-07-02T20:15:25.437Z,37.80
2018-07-02T20:17:54.619Z,38.10
2018-07-02T20:20:23.251Z,38.20
2018-07-02T20:22:51.907Z,38.30
2018-07-02T20:25:20.510Z,38.30
2018-07-02T20:27:49.142Z,38.30
2018-07-02T20:30:18.679Z,38.20
2018-07-02T20:32:47.249Z,38.50
2018-07-02T20:35:16.369Z,38.70
2018-07-02T20:37:44.980Z,38.70
2018-07-02T20:40:13.820Z,38.80
2018-07-02T20:42:42.429Z,39.00
2018-07-02T20:45:11.045Z,38.90
2018-07-02T20:47:39.900Z,39.20
2018-07-02T20:50:08.833Z,39.50
2018-07-02T20:52:37.540Z,39.70
2018-07-02T20:55:06.215Z,39.70
2018-07-02T20:57:35.030Z,40.00
2018-07-02T21:00:03.793Z,40.00
2018-07-02T21:02:32.730Z,40.10
2018-07-02T21:05:01.575Z,40.40
2018-07-02T21:07:30.216Z,40.60
2018-07-02T21:09:58.920Z,40.50
2018-07-02T21:12:28.020Z,40.70
2018-07-02T21:14:56.615Z,40.80
2018-07-02T21:17:26.028Z,40.80
2018-07-02T21:19:54.742Z,41.10
2018-07-02T21:22:23.927Z,41.30
2018-07-02T21:24:53.224Z,41.40
2018-07-02T21:27:22.323Z,41.40
2018-07-02T21:29:50.899Z,41.40
2018-07-02T21:32:20.049Z,41.20
2018-07-02T21:34:48.866Z,41.50
2018-07-02T21:37:17.431Z,41.60
2018-07-02T21:39:46.084Z,41.80
2018-07-02T21:42:14.948Z,41.90
2018-07-02T21:44:43.549Z,41.90
2018-07-02T21:47:12.180Z,42.50
2018-07-02T21:49:40.752Z,42.70
2018-07-02T21:52:09.749Z,42.70
2018-07-02T21:54:38.573Z,42.40
2018-07-02T21:57:07.422Z,41.60
2018-07-02T21:59:36.023Z,42.10
2018-07-02T22:02:04.872Z,42.30
2018-07-02T22:04:33.740Z,42.30
2018-07-02T22:07:02.287Z,42.40
2018-07-02T22:09:30.876Z,42.50
2018-07-02T22:14:28.354Z,42.90
2018-07-02T22:16:57.259Z,43.00
2018-07-02T22:19:26.007Z,43.20
2018-07-02T22:21:54.919Z,43.20
2018-07-02T22:24:23.692Z,43.10
2018-07-02T22:26:52.503Z,43.00
2018-07-02T22:29:21.204Z,43.70
2018-07-02T22:31:49.893Z,44.00
2018-07-02T22:34:18.462Z,44.30
2018-07-02T22:36:47.279Z,44.40
2018-07-02T22:39:15.886Z,44.50
2018-07-02T22:41:44.448Z,44.90
2018-07-02T22:44:13.569Z,44.30
2018-07-02T22:46:42.729Z,44.70
2018-07-02T22:51:40.206Z,44.50
2018-07-02T22:54:09.149Z,44.70
2018-07-02T22:56:37.773Z,44.60
2018-07-02T22:59:06.386Z,44.70
2018-07-02T23:01:35.188Z,45.00
2018-07-02T23:04:04.456Z,44.80
2018-07-02T23:09:01.359Z,45.10
2018-07-02T23:11:30.311Z,45.20
2018-07-02T23:13:58.878Z,45.10
2018-07-02T23:16:27.400Z,44.80
2018-07-02T23:18:56.503Z,44.80
2018-07-02T23:21:25.468Z,45.00
2018-07-02T23:23:54.119Z,45.10
2018-07-02T23:26:23.573Z,45.20
2018-07-02T23:28:52.814Z,45.10
2018-07-02T23:31:21.457Z,45.30
2018-07-02T23:33:50.472Z,45.40
2018-07-02T23:36:19.771Z,45.60
2018-07-02T23:38:48.751Z,46.00
2018-07-02T23:41:19.135Z,46.40
2018-07-02T23:43:48.148Z,46.70
2018-07-02T23:46:17.638Z,46.70
2018-07-02T23:48:47.093Z,46.60
2018-07-02T23:51:16.486Z,46.40
2018-07-02T23:53:45.590Z,46.50
2018-07-02T23:56:15.304Z,46.40
2018-07-02T23:58:44.680Z,46.50
